TZDO2: Arkansas Rv at SH 344 nr Tulsa, OK

                                SHEF ID:       TZDO2     Arkansas Rv at SH 344 nr Tulsa, OK
STATION TYPE:

STAGE RIV-FLOW BAT-LOAD
ft cfs volt
Ccp-Rev Ccp-Rev Ccp-Rev
(America/Chicago)
10/16 00:00 11.57 11049 12.75
10/16 01:00 11.18 9330 12.73
10/16 02:00 10.69 7373 12.71
10/16 03:00 10.21 5672 12.70
10/16 04:00 9.78 4404 12.68
10/16 05:00 9.41 3442 12.67
10/16 06:00 9.10 2636 12.65
10/16 07:00 8.79 1911 12.63
10/16 08:00 8.61 1558 12.63
10/16 09:00 8.43 1242 ----
10/16 10:00 8.24 951 12.69
10/16 11:00 8.11 782 13.36
10/16 12:00 7.98 636 13.30
10/16 13:00 7.90 557 13.23
10/16 14:00 8.15 832 13.10
10/16 15:00 9.91 4749 13.01
10/16 16:00 10.88 8106 12.96
10/16 17:00 11.35 10061 12.95
10/16 18:00 11.59 11141 12.93
10/16 19:00 11.66 11467 12.84
10/16 20:00 11.74 11844 12.80
10/16 21:00 11.79 12083 12.79
10/16 22:00 11.79 12083 12.77
10/16 23:00 ---- ---- ----
Data processed at Fri 17Oct2025 04:51 GMT

NOTICE: If you are parsing this page

Please convert to using our Data API. Starting January 1st, 2026 we will be migrating to: https://water.usace.army.mil with modern pages rendered in JavaScript. You will no longer be able to scrape this page! CWMSDataAPI (CDA)

Timeseries IDs (TSIDs)

TSIDs used from left to right in the data table
GILC.Stage.Inst.1Hour.0.Ccp-Rev
GILC.Flow.Inst.1Hour.0.Ccp-Rev
GILC.Volt-Battery Load.Inst.1Hour.0.Ccp-Rev

                            

All information presented herein is the property of the government of the United States of America and may be revised or deleted at any time without prior notice. Dissemination of this information without the expressed written consent of the Public Affairs Office, Tulsa District U.S. Army Corps of Engineers is strictly prohibited. These data are gathered electronically and, as presented, have NOT undergone any form of quality control. These data are NOT guaranteed to be valid or correct.